sensor_id;sensor_type;location;lat;lon;timestamp;P1;durP1;ratioP1;P2;durP2;ratioP2
18290;SDS011;9271;48.590;8.866;2022-09-09T00:00:59;3.13;;;1.40;;
18290;SDS011;9271;48.590;8.866;2022-09-09T00:03:31;3.03;;;1.40;;
18290;SDS011;9271;48.590;8.866;2022-09-09T00:06:05;3.50;;;1.43;;
18290;SDS011;9271;48.590;8.866;2022-09-09T00:08:40;3.27;;;1.30;;
18290;SDS011;9271;48.590;8.866;2022-09-09T00:11:13;1.87;;;1.20;;
18290;SDS011;9271;48.590;8.866;2022-09-09T00:13:46;2.83;;;1.50;;
18290;SDS011;9271;48.590;8.866;2022-09-09T00:16:19;2.10;;;1.27;;
18290;SDS011;9271;48.590;8.866;2022-09-09T00:18:51;4.90;;;1.30;;
18290;SDS011;9271;48.590;8.866;2022-09-09T00:21:24;1.93;;;1.53;;
18290;SDS011;9271;48.590;8.866;2022-09-09T00:23:57;3.77;;;1.50;;
18290;SDS011;9271;48.590;8.866;2022-09-09T00:26:26;2.60;;;1.43;;
18290;SDS011;9271;48.590;8.866;2022-09-09T00:28:59;2.77;;;1.60;;
18290;SDS011;9271;48.590;8.866;2022-09-09T00:31:32;2.37;;;1.40;;
18290;SDS011;9271;48.590;8.866;2022-09-09T00:34:00;1.77;;;1.50;;
18290;SDS011;9271;48.590;8.866;2022-09-09T00:36:35;6.23;;;1.60;;
18290;SDS011;9271;48.590;8.866;2022-09-09T00:39:03;2.17;;;1.30;;
18290;SDS011;9271;48.590;8.866;2022-09-09T00:41:32;3.83;;;1.33;;
18290;SDS011;9271;48.590;8.866;2022-09-09T00:44:16;3.00;;;1.50;;
18290;SDS011;9271;48.590;8.866;2022-09-09T00:46:55;5.50;;;1.70;;
18290;SDS011;9271;48.590;8.866;2022-09-09T00:49:33;2.37;;;1.33;;
18290;SDS011;9271;48.590;8.866;2022-09-09T00:52:12;3.00;;;1.50;;
18290;SDS011;9271;48.590;8.866;2022-09-09T00:54:48;4.20;;;1.30;;
18290;SDS011;9271;48.590;8.866;2022-09-09T00:57:25;3.33;;;1.40;;
18290;SDS011;9271;48.590;8.866;2022-09-09T00:59:58;4.50;;;1.50;;
18290;SDS011;9271;48.590;8.866;2022-09-09T01:02:46;2.20;;;1.50;;
18290;SDS011;9271;48.590;8.866;2022-09-09T01:05:24;4.53;;;1.50;;
18290;SDS011;9271;48.590;8.866;2022-09-09T01:07:57;4.07;;;1.87;;
18290;SDS011;9271;48.590;8.866;2022-09-09T01:10:29;2.40;;;1.33;;
18290;SDS011;9271;48.590;8.866;2022-09-09T01:13:02;3.17;;;1.50;;
18290;SDS011;9271;48.590;8.866;2022-09-09T01:15:38;3.87;;;1.70;;
18290;SDS011;9271;48.590;8.866;2022-09-09T01:18:10;4.67;;;1.90;;
18290;SDS011;9271;48.590;8.866;2022-09-09T01:20:43;3.60;;;1.80;;
18290;SDS011;9271;48.590;8.866;2022-09-09T01:23:22;4.10;;;1.80;;
18290;SDS011;9271;48.590;8.866;2022-09-09T01:26:07;4.80;;;1.77;;
18290;SDS011;9271;48.590;8.866;2022-09-09T01:28:39;6.77;;;1.63;;
18290;SDS011;9271;48.590;8.866;2022-09-09T01:31:09;1.50;;;1.40;;
18290;SDS011;9271;48.590;8.866;2022-09-09T01:33:40;3.73;;;1.73;;
18290;SDS011;9271;48.590;8.866;2022-09-09T01:36:08;3.43;;;1.73;;
18290;SDS011;9271;48.590;8.866;2022-09-09T01:38:38;3.20;;;1.60;;
18290;SDS011;9271;48.590;8.866;2022-09-09T01:41:07;5.77;;;1.90;;
18290;SDS011;9271;48.590;8.866;2022-09-09T01:43:34;5.53;;;2.00;;
18290;SDS011;9271;48.590;8.866;2022-09-09T01:46:01;2.67;;;1.60;;
18290;SDS011;9271;48.590;8.866;2022-09-09T01:48:28;4.77;;;1.77;;
18290;SDS011;9271;48.590;8.866;2022-09-09T01:50:55;3.20;;;1.53;;
18290;SDS011;9271;48.590;8.866;2022-09-09T01:53:22;3.13;;;1.60;;
18290;SDS011;9271;48.590;8.866;2022-09-09T01:55:52;3.10;;;1.80;;
18290;SDS011;9271;48.590;8.866;2022-09-09T01:58:31;1.97;;;1.70;;
18290;SDS011;9271;48.590;8.866;2022-09-09T02:01:06;2.70;;;1.50;;
18290;SDS011;9271;48.590;8.866;2022-09-09T02:03:38;2.00;;;1.43;;
18290;SDS011;9271;48.590;8.866;2022-09-09T02:06:14;4.07;;;1.53;;
18290;SDS011;9271;48.590;8.866;2022-09-09T02:08:52;2.27;;;1.50;;
18290;SDS011;9271;48.590;8.866;2022-09-09T02:11:22;2.57;;;1.57;;
18290;SDS011;9271;48.590;8.866;2022-09-09T02:13:52;1.87;;;1.53;;
18290;SDS011;9271;48.590;8.866;2022-09-09T02:16:23;1.60;;;1.50;;
18290;SDS011;9271;48.590;8.866;2022-09-09T02:18:53;2.53;;;1.80;;
18290;SDS011;9271;48.590;8.866;2022-09-09T02:21:26;4.97;;;1.77;;
18290;SDS011;9271;48.590;8.866;2022-09-09T02:23:55;2.50;;;1.73;;
18290;SDS011;9271;48.590;8.866;2022-09-09T02:26:25;4.67;;;2.03;;
18290;SDS011;9271;48.590;8.866;2022-09-09T02:28:55;3.97;;;1.90;;
18290;SDS011;9271;48.590;8.866;2022-09-09T02:31:24;3.03;;;1.83;;
18290;SDS011;9271;48.590;8.866;2022-09-09T02:33:52;2.30;;;1.90;;
18290;SDS011;9271;48.590;8.866;2022-09-09T02:36:22;4.07;;;1.90;;
18290;SDS011;9271;48.590;8.866;2022-09-09T02:38:51;2.60;;;1.70;;
18290;SDS011;9271;48.590;8.866;2022-09-09T02:41:19;6.53;;;1.73;;
18290;SDS011;9271;48.590;8.866;2022-09-09T02:43:48;2.87;;;1.70;;
18290;SDS011;9271;48.590;8.866;2022-09-09T02:46:22;4.03;;;1.97;;
18290;SDS011;9271;48.590;8.866;2022-09-09T02:48:58;4.33;;;1.87;;
18290;SDS011;9271;48.590;8.866;2022-09-09T02:51:29;3.13;;;1.90;;
18290;SDS011;9271;48.590;8.866;2022-09-09T02:54:04;8.03;;;1.97;;
18290;SDS011;9271;48.590;8.866;2022-09-09T02:56:42;2.73;;;1.90;;
18290;SDS011;9271;48.590;8.866;2022-09-09T02:59:15;4.47;;;2.10;;
18290;SDS011;9271;48.590;8.866;2022-09-09T03:01:44;2.57;;;1.93;;
18290;SDS011;9271;48.590;8.866;2022-09-09T03:04:11;3.87;;;1.80;;
18290;SDS011;9271;48.590;8.866;2022-09-09T03:06:38;2.37;;;1.97;;
18290;SDS011;9271;48.590;8.866;2022-09-09T03:09:05;3.53;;;1.97;;
18290;SDS011;9271;48.590;8.866;2022-09-09T03:11:35;4.50;;;1.60;;
18290;SDS011;9271;48.590;8.866;2022-09-09T03:14:03;5.57;;;1.70;;
18290;SDS011;9271;48.590;8.866;2022-09-09T03:16:30;2.50;;;1.63;;
18290;SDS011;9271;48.590;8.866;2022-09-09T03:18:59;3.43;;;1.73;;
18290;SDS011;9271;48.590;8.866;2022-09-09T03:21:26;1.80;;;1.40;;
18290;SDS011;9271;48.590;8.866;2022-09-09T03:23:53;2.40;;;1.67;;
18290;SDS011;9271;48.590;8.866;2022-09-09T03:26:20;2.40;;;1.40;;
18290;SDS011;9271;48.590;8.866;2022-09-09T03:28:47;2.47;;;1.77;;
18290;SDS011;9271;48.590;8.866;2022-09-09T03:31:16;2.83;;;1.60;;
18290;SDS011;9271;48.590;8.866;2022-09-09T03:33:44;2.60;;;1.50;;
18290;SDS011;9271;48.590;8.866;2022-09-09T03:36:12;2.87;;;1.80;;
18290;SDS011;9271;48.590;8.866;2022-09-09T03:38:40;4.93;;;1.60;;
18290;SDS011;9271;48.590;8.866;2022-09-09T03:41:06;1.90;;;1.70;;
18290;SDS011;9271;48.590;8.866;2022-09-09T03:43:34;1.60;;;1.50;;
18290;SDS011;9271;48.590;8.866;2022-09-09T03:46:01;2.17;;;1.87;;
18290;SDS011;9271;48.590;8.866;2022-09-09T03:48:28;3.73;;;2.17;;
18290;SDS011;9271;48.590;8.866;2022-09-09T03:50:54;2.97;;;2.00;;
18290;SDS011;9271;48.590;8.866;2022-09-09T03:53:24;4.23;;;1.90;;
18290;SDS011;9271;48.590;8.866;2022-09-09T03:55:51;3.13;;;2.23;;
18290;SDS011;9271;48.590;8.866;2022-09-09T03:58:21;2.50;;;1.90;;
18290;SDS011;9271;48.590;8.866;2022-09-09T04:00:58;3.17;;;1.80;;
18290;SDS011;9271;48.590;8.866;2022-09-09T04:03:27;3.30;;;1.90;;
18290;SDS011;9271;48.590;8.866;2022-09-09T04:05:55;4.03;;;1.60;;
18290;SDS011;9271;48.590;8.866;2022-09-09T04:08:24;2.63;;;1.87;;
18290;SDS011;9271;48.590;8.866;2022-09-09T04:10:51;5.00;;;1.80;;
18290;SDS011;9271;48.590;8.866;2022-09-09T04:13:20;3.40;;;1.80;;
18290;SDS011;9271;48.590;8.866;2022-09-09T04:15:50;2.37;;;1.80;;
18290;SDS011;9271;48.590;8.866;2022-09-09T04:18:17;3.80;;;1.80;;
18290;SDS011;9271;48.590;8.866;2022-09-09T04:20:45;3.13;;;1.50;;
18290;SDS011;9271;48.590;8.866;2022-09-09T04:23:12;2.63;;;1.70;;
18290;SDS011;9271;48.590;8.866;2022-09-09T04:25:44;1.93;;;1.40;;
18290;SDS011;9271;48.590;8.866;2022-09-09T04:28:11;4.30;;;1.87;;
18290;SDS011;9271;48.590;8.866;2022-09-09T04:30:38;3.70;;;2.03;;
18290;SDS011;9271;48.590;8.866;2022-09-09T04:33:05;2.30;;;1.43;;
18290;SDS011;9271;48.590;8.866;2022-09-09T04:35:32;4.87;;;1.87;;
18290;SDS011;9271;48.590;8.866;2022-09-09T04:37:59;2.93;;;1.60;;
18290;SDS011;9271;48.590;8.866;2022-09-09T04:40:27;2.73;;;1.43;;
18290;SDS011;9271;48.590;8.866;2022-09-09T04:42:57;3.00;;;1.63;;
18290;SDS011;9271;48.590;8.866;2022-09-09T04:45:24;5.23;;;1.80;;
18290;SDS011;9271;48.590;8.866;2022-09-09T04:47:51;2.43;;;1.50;;
18290;SDS011;9271;48.590;8.866;2022-09-09T04:50:17;4.13;;;1.50;;
18290;SDS011;9271;48.590;8.866;2022-09-09T04:52:44;3.13;;;1.63;;
18290;SDS011;9271;48.590;8.866;2022-09-09T04:55:11;3.23;;;1.60;;
18290;SDS011;9271;48.590;8.866;2022-09-09T04:57:38;4.67;;;1.67;;
18290;SDS011;9271;48.590;8.866;2022-09-09T05:00:07;4.73;;;1.60;;
18290;SDS011;9271;48.590;8.866;2022-09-09T05:02:36;3.20;;;1.93;;
18290;SDS011;9271;48.590;8.866;2022-09-09T05:05:03;2.27;;;1.50;;
18290;SDS011;9271;48.590;8.866;2022-09-09T05:07:30;5.50;;;1.83;;
18290;SDS011;9271;48.590;8.866;2022-09-09T05:09:57;3.10;;;1.60;;
18290;SDS011;9271;48.590;8.866;2022-09-09T05:12:24;1.87;;;1.57;;
18290;SDS011;9271;48.590;8.866;2022-09-09T05:14:51;2.23;;;1.60;;
18290;SDS011;9271;48.590;8.866;2022-09-09T05:17:19;2.87;;;1.50;;
18290;SDS011;9271;48.590;8.866;2022-09-09T05:19:46;4.63;;;1.70;;
18290;SDS011;9271;48.590;8.866;2022-09-09T05:22:17;4.83;;;1.73;;
18290;SDS011;9271;48.590;8.866;2022-09-09T05:24:45;2.87;;;1.50;;
18290;SDS011;9271;48.590;8.866;2022-09-09T05:27:11;3.07;;;1.70;;
18290;SDS011;9271;48.590;8.866;2022-09-09T05:29:38;3.37;;;2.07;;
18290;SDS011;9271;48.590;8.866;2022-09-09T05:32:06;5.50;;;1.70;;
18290;SDS011;9271;48.590;8.866;2022-09-09T05:34:34;2.80;;;1.60;;
18290;SDS011;9271;48.590;8.866;2022-09-09T05:37:02;3.53;;;1.60;;
18290;SDS011;9271;48.590;8.866;2022-09-09T05:39:30;3.50;;;1.70;;
18290;SDS011;9271;48.590;8.866;2022-09-09T05:41:57;3.10;;;1.40;;
18290;SDS011;9271;48.590;8.866;2022-09-09T05:44:24;3.17;;;1.70;;
18290;SDS011;9271;48.590;8.866;2022-09-09T05:46:52;2.40;;;1.40;;
18290;SDS011;9271;48.590;8.866;2022-09-09T05:49:19;2.23;;;1.70;;
18290;SDS011;9271;48.590;8.866;2022-09-09T05:51:47;2.40;;;1.77;;
18290;SDS011;9271;48.590;8.866;2022-09-09T05:54:15;3.13;;;1.60;;
18290;SDS011;9271;48.590;8.866;2022-09-09T05:56:42;6.47;;;1.80;;
18290;SDS011;9271;48.590;8.866;2022-09-09T05:59:09;2.03;;;1.53;;
18290;SDS011;9271;48.590;8.866;2022-09-09T06:01:36;2.70;;;1.60;;
18290;SDS011;9271;48.590;8.866;2022-09-09T06:04:05;5.13;;;1.67;;
18290;SDS011;9271;48.590;8.866;2022-09-09T06:06:32;2.40;;;1.57;;
18290;SDS011;9271;48.590;8.866;2022-09-09T06:09:03;2.43;;;1.50;;
18290;SDS011;9271;48.590;8.866;2022-09-09T06:11:32;2.07;;;1.40;;
18290;SDS011;9271;48.590;8.866;2022-09-09T06:14:01;2.17;;;1.43;;
18290;SDS011;9271;48.590;8.866;2022-09-09T06:16:28;4.00;;;1.70;;
18290;SDS011;9271;48.590;8.866;2022-09-09T06:18:57;3.50;;;1.60;;
18290;SDS011;9271;48.590;8.866;2022-09-09T06:21:25;5.70;;;1.77;;
18290;SDS011;9271;48.590;8.866;2022-09-09T06:23:53;3.33;;;1.70;;
18290;SDS011;9271;48.590;8.866;2022-09-09T06:26:21;6.40;;;1.40;;
18290;SDS011;9271;48.590;8.866;2022-09-09T06:28:50;6.60;;;1.67;;
18290;SDS011;9271;48.590;8.866;2022-09-09T06:31:19;2.80;;;1.80;;
18290;SDS011;9271;48.590;8.866;2022-09-09T06:33:47;4.13;;;1.47;;
18290;SDS011;9271;48.590;8.866;2022-09-09T06:36:15;4.77;;;1.90;;
18290;SDS011;9271;48.590;8.866;2022-09-09T06:38:43;2.23;;;1.57;;
18290;SDS011;9271;48.590;8.866;2022-09-09T06:41:11;2.57;;;1.60;;
18290;SDS011;9271;48.590;8.866;2022-09-09T06:43:40;3.13;;;1.60;;
18290;SDS011;9271;48.590;8.866;2022-09-09T06:46:08;3.43;;;1.40;;
18290;SDS011;9271;48.590;8.866;2022-09-09T06:48:36;8.37;;;1.93;;
18290;SDS011;9271;48.590;8.866;2022-09-09T06:51:07;3.77;;;1.77;;
18290;SDS011;9271;48.590;8.866;2022-09-09T06:53:36;2.53;;;1.60;;
18290;SDS011;9271;48.590;8.866;2022-09-09T06:56:16;2.70;;;1.50;;
18290;SDS011;9271;48.590;8.866;2022-09-09T06:58:47;3.77;;;1.60;;
18290;SDS011;9271;48.590;8.866;2022-09-09T07:01:15;2.43;;;1.60;;
18290;SDS011;9271;48.590;8.866;2022-09-09T07:03:45;3.47;;;1.60;;
18290;SDS011;9271;48.590;8.866;2022-09-09T07:06:13;5.40;;;1.80;;
18290;SDS011;9271;48.590;8.866;2022-09-09T07:08:42;6.87;;;1.70;;
18290;SDS011;9271;48.590;8.866;2022-09-09T07:11:08;3.77;;;1.50;;
18290;SDS011;9271;48.590;8.866;2022-09-09T07:13:36;4.97;;;1.70;;
18290;SDS011;9271;48.590;8.866;2022-09-09T07:16:05;2.43;;;1.77;;
18290;SDS011;9271;48.590;8.866;2022-09-09T07:18:32;4.07;;;1.80;;
18290;SDS011;9271;48.590;8.866;2022-09-09T07:21:00;3.57;;;1.70;;
18290;SDS011;9271;48.590;8.866;2022-09-09T07:23:27;4.67;;;1.73;;
18290;SDS011;9271;48.590;8.866;2022-09-09T07:25:55;2.67;;;1.30;;
18290;SDS011;9271;48.590;8.866;2022-09-09T07:28:23;1.80;;;1.37;;
18290;SDS011;9271;48.590;8.866;2022-09-09T07:30:54;5.70;;;1.80;;
18290;SDS011;9271;48.590;8.866;2022-09-09T07:33:23;3.90;;;1.57;;
18290;SDS011;9271;48.590;8.866;2022-09-09T07:35:50;3.50;;;1.30;;
18290;SDS011;9271;48.590;8.866;2022-09-09T07:38:17;5.93;;;1.80;;
18290;SDS011;9271;48.590;8.866;2022-09-09T07:40:45;4.30;;;1.60;;
18290;SDS011;9271;48.590;8.866;2022-09-09T07:43:12;2.23;;;1.50;;
18290;SDS011;9271;48.590;8.866;2022-09-09T07:45:39;5.60;;;1.70;;
18290;SDS011;9271;48.590;8.866;2022-09-09T07:48:07;3.97;;;1.70;;
18290;SDS011;9271;48.590;8.866;2022-09-09T07:50:36;4.73;;;1.70;;
18290;SDS011;9271;48.590;8.866;2022-09-09T07:53:02;2.67;;;1.70;;
18290;SDS011;9271;48.590;8.866;2022-09-09T07:55:31;3.40;;;1.70;;
18290;SDS011;9271;48.590;8.866;2022-09-09T07:57:57;4.00;;;1.80;;
18290;SDS011;9271;48.590;8.866;2022-09-09T08:00:24;3.53;;;1.30;;
18290;SDS011;9271;48.590;8.866;2022-09-09T08:02:52;6.73;;;1.70;;
18290;SDS011;9271;48.590;8.866;2022-09-09T08:05:19;2.70;;;1.40;;
18290;SDS011;9271;48.590;8.866;2022-09-09T08:07:48;4.00;;;1.50;;
18290;SDS011;9271;48.590;8.866;2022-09-09T08:10:15;2.07;;;1.30;;
18290;SDS011;9271;48.590;8.866;2022-09-09T08:12:43;2.63;;;1.50;;
18290;SDS011;9271;48.590;8.866;2022-09-09T08:15:10;4.77;;;1.50;;
18290;SDS011;9271;48.590;8.866;2022-09-09T08:17:37;5.10;;;1.60;;
18290;SDS011;9271;48.590;8.866;2022-09-09T08:20:04;4.30;;;1.40;;
18290;SDS011;9271;48.590;8.866;2022-09-09T08:22:31;3.97;;;1.47;;
18290;SDS011;9271;48.590;8.866;2022-09-09T08:25:00;5.23;;;1.50;;
18290;SDS011;9271;48.590;8.866;2022-09-09T08:27:27;5.13;;;1.53;;
18290;SDS011;9271;48.590;8.866;2022-09-09T08:29:53;2.53;;;1.60;;
18290;SDS011;9271;48.590;8.866;2022-09-09T08:32:21;4.70;;;1.50;;
18290;SDS011;9271;48.590;8.866;2022-09-09T08:34:48;4.77;;;1.40;;
18290;SDS011;9271;48.590;8.866;2022-09-09T08:37:16;3.08;;;1.42;;
18290;SDS011;9271;48.590;8.866;2022-09-09T08:39:44;4.93;;;1.50;;
18290;SDS011;9271;48.590;8.866;2022-09-09T08:42:26;2.22;;;1.35;;
18290;SDS011;9271;48.590;8.866;2022-09-09T08:45:09;3.27;;;1.57;;
18290;SDS011;9271;48.590;8.866;2022-09-09T08:47:47;2.83;;;1.53;;
18290;SDS011;9271;48.590;8.866;2022-09-09T08:50:28;5.60;;;1.50;;
18290;SDS011;9271;48.590;8.866;2022-09-09T08:53:00;4.50;;;1.67;;
18290;SDS011;9271;48.590;8.866;2022-09-09T08:55:32;5.47;;;2.00;;
18290;SDS011;9271;48.590;8.866;2022-09-09T08:58:09;5.23;;;2.10;;
18290;SDS011;9271;48.590;8.866;2022-09-09T09:00:41;5.57;;;1.90;;
18290;SDS011;9271;48.590;8.866;2022-09-09T09:03:21;2.87;;;1.30;;
18290;SDS011;9271;48.590;8.866;2022-09-09T09:05:56;4.60;;;1.60;;
18290;SDS011;9271;48.590;8.866;2022-09-09T09:08:29;2.00;;;1.33;;
18290;SDS011;9271;48.590;8.866;2022-09-09T09:11:03;4.93;;;1.80;;
18290;SDS011;9271;48.590;8.866;2022-09-09T09:13:34;6.00;;;1.83;;
18290;SDS011;9271;48.590;8.866;2022-09-09T09:16:06;3.03;;;1.80;;
18290;SDS011;9271;48.590;8.866;2022-09-09T09:18:41;2.73;;;1.53;;
18290;SDS011;9271;48.590;8.866;2022-09-09T09:21:08;3.30;;;1.60;;
18290;SDS011;9271;48.590;8.866;2022-09-09T09:23:41;4.00;;;1.30;;
18290;SDS011;9271;48.590;8.866;2022-09-09T09:26:11;7.70;;;1.80;;
18290;SDS011;9271;48.590;8.866;2022-09-09T09:28:39;3.30;;;1.50;;
18290;SDS011;9271;48.590;8.866;2022-09-09T09:31:08;5.10;;;2.10;;
18290;SDS011;9271;48.590;8.866;2022-09-09T09:33:38;2.22;;;1.48;;
18290;SDS011;9271;48.590;8.866;2022-09-09T09:36:11;2.58;;;1.60;;
18290;SDS011;9271;48.590;8.866;2022-09-09T09:38:50;2.72;;;1.55;;
18290;SDS011;9271;48.590;8.866;2022-09-09T09:41:28;2.25;;;1.45;;
18290;SDS011;9271;48.590;8.866;2022-09-09T09:43:57;2.45;;;1.30;;
18290;SDS011;9271;48.590;8.866;2022-09-09T09:46:25;2.47;;;1.55;;
18290;SDS011;9271;48.590;8.866;2022-09-09T09:48:56;5.88;;;1.60;;
18290;SDS011;9271;48.590;8.866;2022-09-09T09:51:23;1.92;;;1.70;;
18290;SDS011;9271;48.590;8.866;2022-09-09T09:53:52;2.35;;;1.50;;
18290;SDS011;9271;48.590;8.866;2022-09-09T09:56:26;3.33;;;1.63;;
18290;SDS011;9271;48.590;8.866;2022-09-09T09:58:53;3.88;;;1.58;;
18290;SDS011;9271;48.590;8.866;2022-09-09T10:01:23;1.98;;;1.38;;
18290;SDS011;9271;48.590;8.866;2022-09-09T10:03:52;4.47;;;1.63;;
18290;SDS011;9271;48.590;8.866;2022-09-09T10:06:28;4.63;;;1.60;;
18290;SDS011;9271;48.590;8.866;2022-09-09T10:08:55;3.47;;;1.60;;
18290;SDS011;9271;48.590;8.866;2022-09-09T10:11:25;2.80;;;1.30;;
18290;SDS011;9271;48.590;8.866;2022-09-09T10:14:04;4.33;;;1.47;;
18290;SDS011;9271;48.590;8.866;2022-09-09T10:16:44;5.40;;;1.50;;
18290;SDS011;9271;48.590;8.866;2022-09-09T10:19:27;7.57;;;1.80;;
18290;SDS011;9271;48.590;8.866;2022-09-09T10:22:01;5.13;;;1.70;;
18290;SDS011;9271;48.590;8.866;2022-09-09T10:24:41;3.50;;;1.83;;
18290;SDS011;9271;48.590;8.866;2022-09-09T10:27:23;4.93;;;1.90;;
18290;SDS011;9271;48.590;8.866;2022-09-09T10:30:01;4.43;;;1.63;;
18290;SDS011;9271;48.590;8.866;2022-09-09T10:32:39;2.83;;;1.30;;
18290;SDS011;9271;48.590;8.866;2022-09-09T10:38:14;1.43;;;1.30;;
18290;SDS011;9271;48.590;8.866;2022-09-09T10:40:45;3.23;;;1.50;;
18290;SDS011;9271;48.590;8.866;2022-09-09T10:43:39;5.33;;;1.77;;
18290;SDS011;9271;48.590;8.866;2022-09-09T10:46:27;2.57;;;1.40;;
18290;SDS011;9271;48.590;8.866;2022-09-09T10:49:06;2.00;;;1.13;;
18290;SDS011;9271;48.590;8.866;2022-09-09T10:51:42;1.83;;;1.10;;
18290;SDS011;9271;48.590;8.866;2022-09-09T10:54:22;1.77;;;1.37;;
18290;SDS011;9271;48.590;8.866;2022-09-09T10:57:10;3.00;;;1.20;;
18290;SDS011;9271;48.590;8.866;2022-09-09T10:59:42;3.53;;;1.50;;
18290;SDS011;9271;48.590;8.866;2022-09-09T11:02:13;5.10;;;1.20;;
18290;SDS011;9271;48.590;8.866;2022-09-09T11:04:53;2.93;;;1.33;;
18290;SDS011;9271;48.590;8.866;2022-09-09T11:07:25;1.20;;;1.10;;
18290;SDS011;9271;48.590;8.866;2022-09-09T11:09:58;2.03;;;1.07;;
18290;SDS011;9271;48.590;8.866;2022-09-09T11:12:28;2.80;;;1.13;;
18290;SDS011;9271;48.590;8.866;2022-09-09T11:14:57;1.47;;;0.90;;
18290;SDS011;9271;48.590;8.866;2022-09-09T11:17:30;2.60;;;1.03;;
18290;SDS011;9271;48.590;8.866;2022-09-09T11:20:06;1.63;;;0.90;;
18290;SDS011;9271;48.590;8.866;2022-09-09T11:22:38;3.53;;;1.03;;
18290;SDS011;9271;48.590;8.866;2022-09-09T11:25:13;1.00;;;0.90;;
18290;SDS011;9271;48.590;8.866;2022-09-09T11:27:44;2.47;;;1.20;;
18290;SDS011;9271;48.590;8.866;2022-09-09T11:30:24;1.33;;;1.00;;
18290;SDS011;9271;48.590;8.866;2022-09-09T11:36:05;0.90;;;0.87;;
18290;SDS011;9271;48.590;8.866;2022-09-09T11:39:01;0.70;;;0.70;;
18290;SDS011;9271;48.590;8.866;2022-09-09T11:41:40;0.63;;;0.63;;
18290;SDS011;9271;48.590;8.866;2022-09-09T11:44:10;2.97;;;0.80;;
18290;SDS011;9271;48.590;8.866;2022-09-09T11:46:38;1.03;;;0.80;;
18290;SDS011;9271;48.590;8.866;2022-09-09T11:49:23;1.37;;;0.87;;
18290;SDS011;9271;48.590;8.866;2022-09-09T11:51:54;0.70;;;0.70;;
18290;SDS011;9271;48.590;8.866;2022-09-09T11:54:28;1.43;;;0.80;;
18290;SDS011;9271;48.590;8.866;2022-09-09T11:56:57;0.70;;;0.70;;
18290;SDS011;9271;48.590;8.866;2022-09-09T11:59:24;0.90;;;0.80;;
18290;SDS011;9271;48.590;8.866;2022-09-09T12:01:54;0.80;;;0.80;;
18290;SDS011;9271;48.590;8.866;2022-09-09T12:04:30;1.00;;;0.90;;
18290;SDS011;9271;48.590;8.866;2022-09-09T12:07:01;1.10;;;0.70;;
18290;SDS011;9271;48.590;8.866;2022-09-09T12:09:32;2.22;;;1.00;;
18290;SDS011;9271;48.590;8.866;2022-09-09T12:12:23;2.77;;;1.07;;
18290;SDS011;9271;48.590;8.866;2022-09-09T12:14:56;1.07;;;1.00;;
18290;SDS011;9271;48.590;8.866;2022-09-09T12:17:28;3.00;;;1.20;;
18290;SDS011;9271;48.590;8.866;2022-09-09T12:20:00;1.80;;;0.93;;
18290;SDS011;9271;48.590;8.866;2022-09-09T12:22:40;1.83;;;1.10;;
18290;SDS011;9271;48.590;8.866;2022-09-09T12:25:19;2.50;;;1.10;;
18290;SDS011;9271;48.590;8.866;2022-09-09T12:27:56;2.10;;;1.20;;
18290;SDS011;9271;48.590;8.866;2022-09-09T12:30:31;3.37;;;1.20;;
18290;SDS011;9271;48.590;8.866;2022-09-09T12:33:06;1.63;;;1.13;;
18290;SDS011;9271;48.590;8.866;2022-09-09T12:35:37;3.23;;;1.20;;
18290;SDS011;9271;48.590;8.866;2022-09-09T12:38:06;1.17;;;0.93;;
18290;SDS011;9271;48.590;8.866;2022-09-09T12:40:39;2.00;;;1.20;;
18290;SDS011;9271;48.590;8.866;2022-09-09T12:43:17;5.57;;;1.30;;
18290;SDS011;9271;48.590;8.866;2022-09-09T12:45:44;2.33;;;1.23;;
18290;SDS011;9271;48.590;8.866;2022-09-09T12:48:12;1.60;;;1.00;;
18290;SDS011;9271;48.590;8.866;2022-09-09T12:50:43;3.70;;;1.30;;
18290;SDS011;9271;48.590;8.866;2022-09-09T12:53:15;3.00;;;1.20;;
18290;SDS011;9271;48.590;8.866;2022-09-09T12:55:49;3.70;;;1.40;;
18290;SDS011;9271;48.590;8.866;2022-09-09T12:58:17;5.80;;;1.30;;
18290;SDS011;9271;48.590;8.866;2022-09-09T13:00:48;3.83;;;1.10;;
18290;SDS011;9271;48.590;8.866;2022-09-09T13:03:18;3.00;;;1.40;;
18290;SDS011;9271;48.590;8.866;2022-09-09T13:05:46;4.07;;;1.37;;
18290;SDS011;9271;48.590;8.866;2022-09-09T13:08:15;5.70;;;1.30;;
18290;SDS011;9271;48.590;8.866;2022-09-09T13:10:46;3.03;;;1.10;;
18290;SDS011;9271;48.590;8.866;2022-09-09T13:13:20;2.80;;;0.90;;
18290;SDS011;9271;48.590;8.866;2022-09-09T13:15:49;2.13;;;1.00;;
18290;SDS011;9271;48.590;8.866;2022-09-09T13:18:17;3.37;;;1.57;;
18290;SDS011;9271;48.590;8.866;2022-09-09T13:20:47;3.90;;;1.30;;
18290;SDS011;9271;48.590;8.866;2022-09-09T13:23:16;2.17;;;1.20;;
18290;SDS011;9271;48.590;8.866;2022-09-09T13:25:52;2.57;;;1.10;;
18290;SDS011;9271;48.590;8.866;2022-09-09T13:28:21;2.07;;;1.10;;
18290;SDS011;9271;48.590;8.866;2022-09-09T13:30:55;2.80;;;1.10;;
18290;SDS011;9271;48.590;8.866;2022-09-09T13:33:29;2.77;;;1.00;;
18290;SDS011;9271;48.590;8.866;2022-09-09T13:35:58;1.30;;;0.90;;
18290;SDS011;9271;48.590;8.866;2022-09-09T13:38:30;2.80;;;1.07;;
18290;SDS011;9271;48.590;8.866;2022-09-09T13:40:59;1.37;;;1.10;;
18290;SDS011;9271;48.590;8.866;2022-09-09T13:43:28;0.97;;;0.80;;
18290;SDS011;9271;48.590;8.866;2022-09-09T13:45:58;0.90;;;0.90;;
18290;SDS011;9271;48.590;8.866;2022-09-09T13:48:26;2.57;;;0.90;;
18290;SDS011;9271;48.590;8.866;2022-09-09T13:50:58;2.03;;;0.93;;
18290;SDS011;9271;48.590;8.866;2022-09-09T13:53:28;0.87;;;0.77;;
18290;SDS011;9271;48.590;8.866;2022-09-09T13:55:56;1.83;;;0.87;;
18290;SDS011;9271;48.590;8.866;2022-09-09T13:58:23;3.43;;;0.90;;
18290;SDS011;9271;48.590;8.866;2022-09-09T14:00:51;7.50;;;0.90;;
18290;SDS011;9271;48.590;8.866;2022-09-09T14:03:18;3.60;;;0.90;;
18290;SDS011;9271;48.590;8.866;2022-09-09T14:05:46;3.00;;;0.90;;
18290;SDS011;9271;48.590;8.866;2022-09-09T14:08:15;3.43;;;1.17;;
18290;SDS011;9271;48.590;8.866;2022-09-09T14:10:48;4.53;;;0.90;;
18290;SDS011;9271;48.590;8.866;2022-09-09T14:13:15;2.00;;;0.80;;
18290;SDS011;9271;48.590;8.866;2022-09-09T14:15:42;5.67;;;0.87;;
18290;SDS011;9271;48.590;8.866;2022-09-09T14:18:09;3.30;;;0.70;;
18290;SDS011;9271;48.590;8.866;2022-09-09T14:20:38;4.67;;;1.00;;
18290;SDS011;9271;48.590;8.866;2022-09-09T14:23:05;2.63;;;1.03;;
18290;SDS011;9271;48.590;8.866;2022-09-09T14:25:31;1.67;;;0.90;;
18290;SDS011;9271;48.590;8.866;2022-09-09T14:28:00;1.67;;;1.03;;
18290;SDS011;9271;48.590;8.866;2022-09-09T14:30:27;4.40;;;1.17;;
18290;SDS011;9271;48.590;8.866;2022-09-09T14:32:54;3.53;;;0.87;;
18290;SDS011;9271;48.590;8.866;2022-09-09T14:35:20;3.17;;;1.10;;
18290;SDS011;9271;48.590;8.866;2022-09-09T14:37:47;1.67;;;1.00;;
18290;SDS011;9271;48.590;8.866;2022-09-09T14:40:14;2.90;;;0.80;;
18290;SDS011;9271;48.590;8.866;2022-09-09T14:42:41;2.53;;;1.27;;
18290;SDS011;9271;48.590;8.866;2022-09-09T14:45:10;1.90;;;0.90;;
18290;SDS011;9271;48.590;8.866;2022-09-09T14:47:37;3.03;;;1.10;;
18290;SDS011;9271;48.590;8.866;2022-09-09T14:50:04;3.90;;;1.40;;
18290;SDS011;9271;48.590;8.866;2022-09-09T14:52:33;3.83;;;1.30;;
18290;SDS011;9271;48.590;8.866;2022-09-09T14:55:00;1.50;;;1.00;;
18290;SDS011;9271;48.590;8.866;2022-09-09T14:57:26;2.30;;;1.07;;
18290;SDS011;9271;48.590;8.866;2022-09-09T14:59:53;1.80;;;1.10;;
18290;SDS011;9271;48.590;8.866;2022-09-09T15:02:21;2.23;;;1.20;;
18290;SDS011;9271;48.590;8.866;2022-09-09T15:04:48;3.27;;;0.97;;
18290;SDS011;9271;48.590;8.866;2022-09-09T15:07:15;2.10;;;0.97;;
18290;SDS011;9271;48.590;8.866;2022-09-09T15:09:41;5.40;;;0.90;;
18290;SDS011;9271;48.590;8.866;2022-09-09T15:12:08;2.20;;;1.00;;
18290;SDS011;9271;48.590;8.866;2022-09-09T15:14:35;1.07;;;0.97;;
18290;SDS011;9271;48.590;8.866;2022-09-09T15:17:03;1.57;;;1.00;;
18290;SDS011;9271;48.590;8.866;2022-09-09T15:19:31;2.20;;;1.13;;
18290;SDS011;9271;48.590;8.866;2022-09-09T15:21:58;2.60;;;1.10;;
18290;SDS011;9271;48.590;8.866;2022-09-09T15:24:25;5.50;;;1.37;;
18290;SDS011;9271;48.590;8.866;2022-09-09T15:26:52;1.63;;;1.03;;